Mayport, FL

11:25 PM EDT on September 21, 2014 (GMT -0400)
Fernandina Beach | Change Station
CLOSE
Current Station
Airport
Location: Fernandina Beach,
Elevation: 16 ft
Nearby Weather Stations

Elev 16 ft 30.61 °N, 81.46 °W | Updated 5 days ago

Clear
Clear
76 °F
Feels Like 76 °F
N
5
Wind Variable Wind from South
Gusts 5 mph

Today
High -- | Low -- °F
--% Chance of Precip.
Yesterday
High -- | Low -- °F
Precip. -- in
7:13 AM 7:23 PM
Waning Crescent, 4% visible
Pressure 30.00 in
Visibility 0.2 miles
Clouds Overcast 500 ft
Dew Point 70 °F
Humidity 79%
Rainfall 0.00 in
Snow Depth Not available.
UV 3 out of 12
Pollen 7.20 out of 12
Ozone Good
PM2.5 Good
Flu Activity Not available.
METAR KFHB 161855Z AUTO 00000KT M1/4SM TS OVC005 26/24 A3000 RMK AO1 LTG DSNT NW THRU SE

More Conditions Fewer Conditions

Pressure 30.00 in
Visibility 0.2 miles
Clouds Overcast 500 ft
Dew Point 70 °F
Humidity 79%
Rainfall 0.00 in
Snow Depth Not available.
UV 3 out of 12
Pollen 7.20 out of 12
Ozone Good
PM2.5 Good
Flu Activity Not available.
METAR KFHB 161855Z AUTO 00000KT M1/4SM TS OVC005 26/24 A3000 RMK AO1 LTG DSNT NW THRU SE

More Conditions Fewer Conditions

10-Day Weather Forecast

Almanac

Astronomy

Sep. 21, 2014 Rise Set
Actual Time 7:13 AM EDT 7:23 PM EDT
Civil Twilight 6:49 AM EDT 7:47 PM EDT
Nautical Twilight 6:21 AM EDT 8:15 PM EDT
Astronomical Twilight 5:53 AM EDT 8:43 PM EDT
Moon 4:53 AM EDT (9/21) 5:52 PM EDT (9/21)
Length of Visible Light 12h 58m
Length of Day
12h 10m
Tomorrow will be 1m 50s shorter.
Waning Crescent, 4% of the Moon is Illuminated
Today
Waning Crescent
Sep 24
New
Oct 1
First Quarter
Oct 8
Full
Oct 15
Last Quarter

Today's Extremes

State Highs State Lows

Community

WunderPhotos

Upload Photos

1,755,382 photos uploaded!

WunderBlogs® & News

Nearby

Air Quality

  Air Quality AQ Index Pollutant
Yesterday Good
OZONE
Yesterday Good
PM2.5
Current Good
PM2.5
Current Good
OZONE
Sunday Good
OZONE
Sunday Good
PM2.5
Monday Good
OZONE
Monday Good
PM2.5

Snow Depth

Station Depth Elevation
No new snow has been reported.

Earthquake Activity

City Distance Mag. Time & Date
No recent earthquake activity has been reported nearby.
Minimum magnitude displayed is 2.5.

Coastal Water Temperatures

Place Temperature
Mayport (Bar Pilots Dock), FL 82.9 °F
Fernandina Beach, FL 82.0 °F

Nearby Weather Stations